sensor_id;sensor_type;location;lat;lon;timestamp;pressure;altitude;pressure_sealevel;temperature;humidity
18900;BME280;9582;52.018;6.306;2023-07-28T00:01:56;100073.59;;;17.53;61.20
18900;BME280;9582;52.018;6.306;2023-07-28T00:04:22;100064.88;;;17.52;61.53
18900;BME280;9582;52.018;6.306;2023-07-28T00:06:49;100068.25;;;17.54;61.62
18900;BME280;9582;52.018;6.306;2023-07-28T00:09:15;100066.44;;;17.55;62.01
18900;BME280;9582;52.018;6.306;2023-07-28T00:11:42;100060.31;;;17.54;62.20
18900;BME280;9582;52.018;6.306;2023-07-28T00:14:08;100068.25;;;17.54;62.31
18900;BME280;9582;52.018;6.306;2023-07-28T00:16:35;100071.72;;;17.55;62.29
18900;BME280;9582;52.018;6.306;2023-07-28T00:19:03;100066.44;;;17.55;62.38
18900;BME280;9582;52.018;6.306;2023-07-28T00:21:30;100071.72;;;17.55;62.39
18900;BME280;9582;52.018;6.306;2023-07-28T00:23:56;100071.72;;;17.55;62.60
18900;BME280;9582;52.018;6.306;2023-07-28T00:26:23;100074.38;;;17.55;62.80
18900;BME280;9582;52.018;6.306;2023-07-28T00:28:49;100062.00;;;17.55;62.73
18900;BME280;9582;52.018;6.306;2023-07-28T00:31:16;100069.78;;;17.57;62.78
18900;BME280;9582;52.018;6.306;2023-07-28T00:33:42;100060.06;;;17.57;62.89
18900;BME280;9582;52.018;6.306;2023-07-28T00:36:10;100059.22;;;17.57;63.15
18900;BME280;9582;52.018;6.306;2023-07-28T00:38:36;100057.41;;;17.57;63.88
18900;BME280;9582;52.018;6.306;2023-07-28T00:41:03;100051.28;;;17.57;64.09
18900;BME280;9582;52.018;6.306;2023-07-28T00:43:29;100057.41;;;17.57;64.38
18900;BME280;9582;52.018;6.306;2023-07-28T00:45:56;100059.22;;;17.57;64.51
18900;BME280;9582;52.018;6.306;2023-07-28T00:48:23;100059.22;;;17.57;64.41
18900;BME280;9582;52.018;6.306;2023-07-28T00:50:51;100059.22;;;17.57;64.32
18900;BME280;9582;52.018;6.306;2023-07-28T00:53:22;100061.84;;;17.57;64.54
18900;BME280;9582;52.018;6.306;2023-07-28T00:55:49;100061.84;;;17.57;65.15
18900;BME280;9582;52.018;6.306;2023-07-28T00:58:17;100061.00;;;17.56;65.09
18900;BME280;9582;52.018;6.306;2023-07-28T01:00:44;100059.34;;;17.55;64.76
18900;BME280;9582;52.018;6.306;2023-07-28T01:03:10;100062.81;;;17.56;64.58
18900;BME280;9582;52.018;6.306;2023-07-28T01:05:47;100057.53;;;17.56;64.44
18900;BME280;9582;52.018;6.306;2023-07-28T01:08:21;100058.50;;;17.55;64.14
18900;BME280;9582;52.018;6.306;2023-07-28T01:10:52;100055.94;;;17.53;63.67
18900;BME280;9582;52.018;6.306;2023-07-28T01:13:18;100054.41;;;17.51;63.75
18900;BME280;9582;52.018;6.306;2023-07-28T01:15:45;100057.06;;;17.51;63.39
18900;BME280;9582;52.018;6.306;2023-07-28T01:18:11;100052.75;;;17.50;62.86
18900;BME280;9582;52.018;6.306;2023-07-28T01:20:39;100051.06;;;17.49;62.54
18900;BME280;9582;52.018;6.306;2023-07-28T01:23:08;100045.78;;;17.49;62.16
18900;BME280;9582;52.018;6.306;2023-07-28T01:25:55;100038.81;;;17.48;61.71
18900;BME280;9582;52.018;6.306;2023-07-28T01:28:29;100032.25;;;17.42;61.43
18900;BME280;9582;52.018;6.306;2023-07-28T01:30:56;100045.72;;;17.39;61.32
18900;BME280;9582;52.018;6.306;2023-07-28T01:33:23;100039.59;;;17.39;61.01
18900;BME280;9582;52.018;6.306;2023-07-28T01:35:49;100037.69;;;17.41;60.69
18900;BME280;9582;52.018;6.306;2023-07-28T01:38:16;100037.78;;;17.39;60.39
18900;BME280;9582;52.018;6.306;2023-07-28T01:40:42;100028.91;;;17.40;60.27
18900;BME280;9582;52.018;6.306;2023-07-28T01:43:09;100021.81;;;17.41;60.15
18900;BME280;9582;52.018;6.306;2023-07-28T01:45:37;100022.66;;;17.41;59.95
18900;BME280;9582;52.018;6.306;2023-07-28T01:48:04;100025.41;;;17.40;60.35
18900;BME280;9582;52.018;6.306;2023-07-28T01:50:30;100006.66;;;17.43;59.71
18900;BME280;9582;52.018;6.306;2023-07-28T01:52:57;100008.47;;;17.42;59.67
18900;BME280;9582;52.018;6.306;2023-07-28T01:55:23;99995.97;;;17.44;59.42
18900;BME280;9582;52.018;6.306;2023-07-28T01:57:54;99985.41;;;17.44;59.28
18900;BME280;9582;52.018;6.306;2023-07-28T02:00:21;99983.56;;;17.45;59.21
18900;BME280;9582;52.018;6.306;2023-07-28T02:02:49;99987.75;;;17.47;59.25
18900;BME280;9582;52.018;6.306;2023-07-28T02:05:16;99982.59;;;17.46;59.12
18900;BME280;9582;52.018;6.306;2023-07-28T02:07:42;99985.94;;;17.48;59.03
18900;BME280;9582;52.018;6.306;2023-07-28T02:10:09;99984.03;;;17.50;59.00
18900;BME280;9582;52.018;6.306;2023-07-28T02:12:36;99979.56;;;17.50;58.90
18900;BME280;9582;52.018;6.306;2023-07-28T02:15:03;99967.19;;;17.51;58.85
18900;BME280;9582;52.018;6.306;2023-07-28T02:17:30;99964.53;;;17.51;58.86
18900;BME280;9582;52.018;6.306;2023-07-28T02:19:57;99961.91;;;17.51;58.82
18900;BME280;9582;52.018;6.306;2023-07-28T02:22:24;99964.53;;;17.51;58.76
18900;BME280;9582;52.018;6.306;2023-07-28T02:24:50;99954.81;;;17.51;58.78
18900;BME280;9582;52.018;6.306;2023-07-28T02:27:17;99947.84;;;17.50;58.76
18900;BME280;9582;52.018;6.306;2023-07-28T02:29:43;99937.16;;;17.52;58.66
18900;BME280;9582;52.018;6.306;2023-07-28T02:32:11;99933.66;;;17.51;58.62
18900;BME280;9582;52.018;6.306;2023-07-28T02:34:37;99939.91;;;17.50;58.55
18900;BME280;9582;52.018;6.306;2023-07-28T02:37:05;99945.19;;;17.50;58.59
18900;BME280;9582;52.018;6.306;2023-07-28T02:39:31;99928.53;;;17.50;58.52
18900;BME280;9582;52.018;6.306;2023-07-28T02:41:58;99926.69;;;17.50;58.49
18900;BME280;9582;52.018;6.306;2023-07-28T02:44:24;99927.53;;;17.51;58.47
18900;BME280;9582;52.018;6.306;2023-07-28T02:46:51;99929.34;;;17.50;58.51
18900;BME280;9582;52.018;6.306;2023-07-28T02:49:17;99939.09;;;17.50;58.48
18900;BME280;9582;52.018;6.306;2023-07-28T02:51:44;99937.28;;;17.50;58.49
18900;BME280;9582;52.018;6.306;2023-07-28T02:54:12;99943.41;;;17.51;58.46
18900;BME280;9582;52.018;6.306;2023-07-28T02:56:38;99938.94;;;17.51;58.44
18900;BME280;9582;52.018;6.306;2023-07-28T02:59:09;99938.94;;;17.51;58.38
18900;BME280;9582;52.018;6.306;2023-07-28T03:01:36;99935.34;;;17.52;58.46
18900;BME280;9582;52.018;6.306;2023-07-28T03:04:03;99930.88;;;17.53;58.40
18900;BME280;9582;52.018;6.306;2023-07-28T03:06:43;99940.53;;;17.54;58.34
18900;BME280;9582;52.018;6.306;2023-07-28T03:09:09;99941.44;;;17.53;58.39
18900;BME280;9582;52.018;6.306;2023-07-28T03:11:48;99940.53;;;17.54;58.43
18900;BME280;9582;52.018;6.306;2023-07-28T03:14:14;99942.28;;;17.53;58.40
18900;BME280;9582;52.018;6.306;2023-07-28T03:16:42;99941.44;;;17.53;58.37
18900;BME280;9582;52.018;6.306;2023-07-28T03:19:08;99938.81;;;17.53;58.41
18900;BME280;9582;52.018;6.306;2023-07-28T03:21:35;99952.88;;;17.53;58.40
18900;BME280;9582;52.018;6.306;2023-07-28T03:24:01;99956.38;;;17.54;58.37
18900;BME280;9582;52.018;6.306;2023-07-28T03:26:28;99952.03;;;17.53;58.34
18900;BME280;9582;52.018;6.306;2023-07-28T03:28:56;99953.75;;;17.54;58.33
18900;BME280;9582;52.018;6.306;2023-07-28T03:31:23;99954.66;;;17.53;58.35
18900;BME280;9582;52.018;6.306;2023-07-28T03:33:49;99952.03;;;17.53;58.44
18900;BME280;9582;52.018;6.306;2023-07-28T03:36:16;99952.88;;;17.53;58.60
18900;BME280;9582;52.018;6.306;2023-07-28T03:38:44;99948.00;;;17.49;60.49
18900;BME280;9582;52.018;6.306;2023-07-28T03:41:11;99938.09;;;17.51;57.87
18900;BME280;9582;52.018;6.306;2023-07-28T03:43:38;99944.09;;;17.53;57.94
18900;BME280;9582;52.018;6.306;2023-07-28T03:46:06;99950.22;;;17.53;58.06
18900;BME280;9582;52.018;6.306;2023-07-28T03:48:32;99948.44;;;17.54;58.15
18900;BME280;9582;52.018;6.306;2023-07-28T03:50:59;99950.22;;;17.53;58.24
18900;BME280;9582;52.018;6.306;2023-07-28T03:53:25;99959.03;;;17.54;58.30
18900;BME280;9582;52.018;6.306;2023-07-28T03:55:52;99959.03;;;17.54;58.45
18900;BME280;9582;52.018;6.306;2023-07-28T03:58:19;99956.38;;;17.54;58.55
18900;BME280;9582;52.018;6.306;2023-07-28T04:00:46;99957.31;;;17.53;58.64
18900;BME280;9582;52.018;6.306;2023-07-28T04:03:14;99963.34;;;17.55;58.75
18900;BME280;9582;52.018;6.306;2023-07-28T04:05:40;99967.78;;;17.54;58.75
18900;BME280;9582;52.018;6.306;2023-07-28T04:08:06;99966.00;;;17.55;58.86
18900;BME280;9582;52.018;6.306;2023-07-28T04:10:33;99971.28;;;17.55;58.88
18900;BME280;9582;52.018;6.306;2023-07-28T04:12:59;99966.94;;;17.54;59.05
18900;BME280;9582;52.018;6.306;2023-07-28T04:15:26;99964.31;;;17.54;59.18
18900;BME280;9582;52.018;6.306;2023-07-28T04:17:52;99966.06;;;17.53;59.19
18900;BME280;9582;52.018;6.306;2023-07-28T04:20:20;99968.63;;;17.55;59.28
18900;BME280;9582;52.018;6.306;2023-07-28T04:22:47;99966.00;;;17.55;59.16
18900;BME280;9582;52.018;6.306;2023-07-28T04:25:13;99964.88;;;17.57;59.29
18900;BME280;9582;52.018;6.306;2023-07-28T04:27:44;99967.66;;;17.56;59.41
18900;BME280;9582;52.018;6.306;2023-07-28T04:30:11;99974.63;;;17.57;59.49
18900;BME280;9582;52.018;6.306;2023-07-28T04:32:38;99981.72;;;17.56;59.64
18900;BME280;9582;52.018;6.306;2023-07-28T04:35:13;99974.63;;;17.57;59.67
18900;BME280;9582;52.018;6.306;2023-07-28T04:38:04;99974.63;;;17.57;59.91
18900;BME280;9582;52.018;6.306;2023-07-28T04:40:50;99978.81;;;17.59;59.94
18900;BME280;9582;52.018;6.306;2023-07-28T04:43:22;99983.25;;;17.59;60.01
18900;BME280;9582;52.018;6.306;2023-07-28T04:45:52;99990.22;;;17.60;60.25
18900;BME280;9582;52.018;6.306;2023-07-28T04:48:21;99991.75;;;17.62;60.54
18900;BME280;9582;52.018;6.306;2023-07-28T04:50:48;99995.25;;;17.63;60.67
18900;BME280;9582;52.018;6.306;2023-07-28T04:53:35;99992.44;;;17.64;60.55
18900;BME280;9582;52.018;6.306;2023-07-28T04:56:07;99996.94;;;17.64;60.66
18900;BME280;9582;52.018;6.306;2023-07-28T04:58:34;99991.63;;;17.64;60.60
18900;BME280;9582;52.018;6.306;2023-07-28T05:01:01;100003.88;;;17.65;60.88
18900;BME280;9582;52.018;6.306;2023-07-28T05:03:28;100001.09;;;17.66;60.97
18900;BME280;9582;52.018;6.306;2023-07-28T05:05:58;100007.94;;;17.69;60.84
18900;BME280;9582;52.018;6.306;2023-07-28T05:08:25;100001.66;;;17.70;60.73
18900;BME280;9582;52.018;6.306;2023-07-28T05:10:53;99997.19;;;17.70;61.10
18900;BME280;9582;52.018;6.306;2023-07-28T05:13:22;99993.59;;;17.71;61.08
18900;BME280;9582;52.018;6.306;2023-07-28T05:15:53;99995.13;;;17.74;60.97
18900;BME280;9582;52.018;6.306;2023-07-28T05:18:38;99995.00;;;17.75;60.97
18900;BME280;9582;52.018;6.306;2023-07-28T05:21:28;99991.53;;;17.75;60.94
18900;BME280;9582;52.018;6.306;2023-07-28T05:23:54;99997.53;;;17.77;61.38
18900;BME280;9582;52.018;6.306;2023-07-28T05:26:22;99988.63;;;17.78;61.49
18900;BME280;9582;52.018;6.306;2023-07-28T05:28:49;99999.91;;;17.80;62.62
18900;BME280;9582;52.018;6.306;2023-07-28T05:31:16;99988.31;;;17.81;63.03
18900;BME280;9582;52.018;6.306;2023-07-28T05:33:43;99990.84;;;17.82;62.84
18900;BME280;9582;52.018;6.306;2023-07-28T05:36:10;99995.31;;;17.82;63.09
18900;BME280;9582;52.018;6.306;2023-07-28T05:38:36;99988.22;;;17.82;63.65
18900;BME280;9582;52.018;6.306;2023-07-28T05:41:04;99992.53;;;17.83;63.36
18900;BME280;9582;52.018;6.306;2023-07-28T05:43:33;99993.34;;;17.84;63.46
18900;BME280;9582;52.018;6.306;2023-07-28T05:46:01;100004.78;;;17.84;63.12
18900;BME280;9582;52.018;6.306;2023-07-28T05:48:32;100016.19;;;17.85;63.23
18900;BME280;9582;52.018;6.306;2023-07-28T05:50:58;100025.09;;;17.84;63.48
18900;BME280;9582;52.018;6.306;2023-07-28T05:53:25;100008.25;;;17.85;62.94
18900;BME280;9582;52.018;6.306;2023-07-28T05:55:57;100017.88;;;17.86;62.82
18900;BME280;9582;52.018;6.306;2023-07-28T05:58:24;100021.38;;;17.86;62.87
18900;BME280;9582;52.018;6.306;2023-07-28T06:00:52;100008.00;;;17.88;62.72
18900;BME280;9582;52.018;6.306;2023-07-28T06:03:45;100008.00;;;17.88;62.42
18900;BME280;9582;52.018;6.306;2023-07-28T06:06:17;100013.28;;;17.88;62.81
18900;BME280;9582;52.018;6.306;2023-07-28T06:08:44;100027.47;;;17.87;63.06
18900;BME280;9582;52.018;6.306;2023-07-28T06:11:11;100025.66;;;17.87;63.01
18900;BME280;9582;52.018;6.306;2023-07-28T06:13:37;100025.53;;;17.89;62.85
18900;BME280;9582;52.018;6.306;2023-07-28T06:16:05;100025.53;;;17.89;62.89
18900;BME280;9582;52.018;6.306;2023-07-28T06:18:32;100019.25;;;17.90;62.90
18900;BME280;9582;52.018;6.306;2023-07-28T06:21:12;100023.44;;;17.93;62.67
18900;BME280;9582;52.018;6.306;2023-07-28T06:23:39;100033.91;;;17.94;62.45
18900;BME280;9582;52.018;6.306;2023-07-28T06:26:05;100028.63;;;17.94;62.55
18900;BME280;9582;52.018;6.306;2023-07-28T06:28:33;100032.22;;;17.93;63.27
18900;BME280;9582;52.018;6.306;2023-07-28T06:31:00;100033.75;;;17.96;63.46
18900;BME280;9582;52.018;6.306;2023-07-28T06:33:29;100038.78;;;17.99;63.34
18900;BME280;9582;52.018;6.306;2023-07-28T06:35:55;100043.53;;;18.05;63.45
18900;BME280;9582;52.018;6.306;2023-07-28T06:38:22;100050.25;;;18.09;63.30
18900;BME280;9582;52.018;6.306;2023-07-28T06:40:49;100052.75;;;18.10;63.56
18900;BME280;9582;52.018;6.306;2023-07-28T06:43:16;100049.97;;;18.12;63.96
18900;BME280;9582;52.018;6.306;2023-07-28T06:45:46;100052.75;;;18.10;64.66
18900;BME280;9582;52.018;6.306;2023-07-28T06:48:13;100060.81;;;18.09;65.36
18900;BME280;9582;52.018;6.306;2023-07-28T06:50:41;100059.00;;;18.09;66.61
18900;BME280;9582;52.018;6.306;2023-07-28T06:53:08;100073.91;;;18.10;67.36
18900;BME280;9582;52.018;6.306;2023-07-28T06:55:34;100065.84;;;18.12;67.58
18900;BME280;9582;52.018;6.306;2023-07-28T06:58:04;100062.22;;;18.13;67.86
18900;BME280;9582;52.018;6.306;2023-07-28T07:00:30;100074.34;;;18.15;68.21
18900;BME280;9582;52.018;6.306;2023-07-28T07:02:57;100070.47;;;18.19;68.27
18900;BME280;9582;52.018;6.306;2023-07-28T07:05:23;100079.25;;;18.20;68.43
18900;BME280;9582;52.018;6.306;2023-07-28T07:07:51;100083.69;;;18.19;68.92
18900;BME280;9582;52.018;6.306;2023-07-28T07:10:18;100094.13;;;18.21;69.77
18900;BME280;9582;52.018;6.306;2023-07-28T07:12:46;100093.16;;;18.22;70.01
18900;BME280;9582;52.018;6.306;2023-07-28T07:15:13;100095.66;;;18.23;70.49
18900;BME280;9582;52.018;6.306;2023-07-28T07:17:39;100099.03;;;18.25;70.72
18900;BME280;9582;52.018;6.306;2023-07-28T07:20:07;100095.13;;;18.29;70.63
18900;BME280;9582;52.018;6.306;2023-07-28T07:22:35;100097.38;;;18.34;70.65
18900;BME280;9582;52.018;6.306;2023-07-28T07:25:04;100102.41;;;18.37;70.64
18900;BME280;9582;52.018;6.306;2023-07-28T07:27:32;100102.16;;;18.40;70.86
18900;BME280;9582;52.018;6.306;2023-07-28T07:29:58;100099.34;;;18.41;70.99
18900;BME280;9582;52.018;6.306;2023-07-28T07:32:25;100098.50;;;18.41;71.31
18900;BME280;9582;52.018;6.306;2023-07-28T07:34:51;100108.25;;;18.40;71.95
18900;BME280;9582;52.018;6.306;2023-07-28T07:37:18;100098.66;;;18.39;73.02
18900;BME280;9582;52.018;6.306;2023-07-28T07:39:44;100105.50;;;18.42;73.64
18900;BME280;9582;52.018;6.306;2023-07-28T07:42:13;100107.63;;;18.48;73.85
18900;BME280;9582;52.018;6.306;2023-07-28T07:44:40;100114.47;;;18.51;74.64
18900;BME280;9582;52.018;6.306;2023-07-28T07:47:12;100103.31;;;18.57;75.59
18900;BME280;9582;52.018;6.306;2023-07-28T07:49:39;100110.41;;;18.66;76.61
18900;BME280;9582;52.018;6.306;2023-07-28T07:52:07;100104.31;;;18.75;77.08
18900;BME280;9582;52.018;6.306;2023-07-28T07:54:33;100106.81;;;18.86;77.92
18900;BME280;9582;52.018;6.306;2023-07-28T07:57:00;100103.06;;;18.88;79.39
18900;BME280;9582;52.018;6.306;2023-07-28T07:59:29;100110.31;;;18.86;88.41
18900;BME280;9582;52.018;6.306;2023-07-28T08:01:57;100104.19;;;18.86;91.23
18900;BME280;9582;52.018;6.306;2023-07-28T08:04:25;100108.09;;;18.82;93.00
18900;BME280;9582;52.018;6.306;2023-07-28T08:06:53;100106.28;;;18.82;94.85
18900;BME280;9582;52.018;6.306;2023-07-28T08:09:19;100103.22;;;18.87;96.58
18900;BME280;9582;52.018;6.306;2023-07-28T08:11:46;100110.63;;;18.93;97.27
18900;BME280;9582;52.018;6.306;2023-07-28T08:14:12;100107.81;;;19.04;96.84
18900;BME280;9582;52.018;6.306;2023-07-28T08:16:40;100101.56;;;19.05;99.20
18900;BME280;9582;52.018;6.306;2023-07-28T08:19:07;100103.38;;;19.05;100.00
18900;BME280;9582;52.018;6.306;2023-07-28T08:21:33;100101.69;;;19.03;100.00
18900;BME280;9582;52.018;6.306;2023-07-28T08:24:01;100099.19;;;19.02;100.00
18900;BME280;9582;52.018;6.306;2023-07-28T08:26:29;100100.72;;;19.05;100.00
18900;BME280;9582;52.018;6.306;2023-07-28T08:28:55;100100.69;;;19.14;100.00
18900;BME280;9582;52.018;6.306;2023-07-28T08:31:22;100099.00;;;19.23;100.00
18900;BME280;9582;52.018;6.306;2023-07-28T08:33:50;100097.09;;;19.25;100.00
18900;BME280;9582;52.018;6.306;2023-07-28T08:36:16;100100.53;;;19.25;100.00
18900;BME280;9582;52.018;6.306;2023-07-28T08:38:43;100095.84;;;19.19;100.00
18900;BME280;9582;52.018;6.306;2023-07-28T08:41:10;100093.03;;;19.21;100.00
18900;BME280;9582;52.018;6.306;2023-07-28T08:43:37;100095.81;;;19.29;100.00
18900;BME280;9582;52.018;6.306;2023-07-28T08:46:03;100091.22;;;19.40;100.00
18900;BME280;9582;52.018;6.306;2023-07-28T08:48:30;100091.34;;;19.48;100.00
18900;BME280;9582;52.018;6.306;2023-07-28T08:50:58;100094.94;;;19.57;100.00
18900;BME280;9582;52.018;6.306;2023-07-28T08:53:24;100095.91;;;19.66;100.00
18900;BME280;9582;52.018;6.306;2023-07-28T08:55:51;100097.44;;;19.68;100.00
18900;BME280;9582;52.018;6.306;2023-07-28T08:58:20;100098.16;;;19.61;100.00
18900;BME280;9582;52.018;6.306;2023-07-28T09:00:47;100102.88;;;19.67;100.00
18900;BME280;9582;52.018;6.306;2023-07-28T09:03:15;100116.69;;;19.70;100.00
18900;BME280;9582;52.018;6.306;2023-07-28T09:05:42;100128.69;;;19.74;100.00
18900;BME280;9582;52.018;6.306;2023-07-28T09:08:11;100151.44;;;19.77;100.00
18900;BME280;9582;52.018;6.306;2023-07-28T09:10:41;100170.16;;;19.75;100.00
18900;BME280;9582;52.018;6.306;2023-07-28T09:13:09;100186.88;;;19.76;100.00
18900;BME280;9582;52.018;6.306;2023-07-28T09:15:36;100178.25;;;19.74;100.00
18900;BME280;9582;52.018;6.306;2023-07-28T09:18:02;100181.06;;;19.72;100.00
18900;BME280;9582;52.018;6.306;2023-07-28T09:20:34;100176.28;;;19.76;100.00
18900;BME280;9582;52.018;6.306;2023-07-28T09:23:01;100169.72;;;19.80;100.00
18900;BME280;9582;52.018;6.306;2023-07-28T09:25:29;100176.72;;;19.81;100.00
18900;BME280;9582;52.018;6.306;2023-07-28T09:27:56;100164.41;;;19.80;100.00
18900;BME280;9582;52.018;6.306;2023-07-28T09:30:23;100176.00;;;19.79;100.00
18900;BME280;9582;52.018;6.306;2023-07-28T09:32:52;100181.47;;;19.77;100.00
18900;BME280;9582;52.018;6.306;2023-07-28T09:35:20;100185.63;;;19.80;100.00
18900;BME280;9582;52.018;6.306;2023-07-28T09:37:48;100216.06;;;19.76;100.00
18900;BME280;9582;52.018;6.306;2023-07-28T09:40:17;100236.03;;;19.70;100.00
18900;BME280;9582;52.018;6.306;2023-07-28T09:42:47;100250.16;;;19.71;100.00
18900;BME280;9582;52.018;6.306;2023-07-28T09:45:16;100266.78;;;19.73;100.00
18900;BME280;9582;52.018;6.306;2023-07-28T09:47:44;100282.56;;;19.84;100.00
18900;BME280;9582;52.018;6.306;2023-07-28T09:50:14;100288.97;;;20.00;100.00
18900;BME280;9582;52.018;6.306;2023-07-28T09:52:42;100301.81;;;20.14;100.00
18900;BME280;9582;52.018;6.306;2023-07-28T09:55:10;100325.41;;;20.17;100.00
18900;BME280;9582;52.018;6.306;2023-07-28T09:57:41;100349.72;;;20.32;100.00
18900;BME280;9582;52.018;6.306;2023-07-28T10:00:14;100361.44;;;20.39;100.00
18900;BME280;9582;52.018;6.306;2023-07-28T10:02:41;100371.78;;;20.52;100.00
18900;BME280;9582;52.018;6.306;2023-07-28T10:05:09;100383.63;;;20.67;100.00
18900;BME280;9582;52.018;6.306;2023-07-28T10:07:38;100382.88;;;20.84;100.00
18900;BME280;9582;52.018;6.306;2023-07-28T10:10:07;100386.94;;;20.88;100.00
18900;BME280;9582;52.018;6.306;2023-07-28T10:12:40;100380.44;;;21.10;100.00
18900;BME280;9582;52.018;6.306;2023-07-28T10:15:13;100380.41;;;21.19;100.00
18900;BME280;9582;52.018;6.306;2023-07-28T10:17:43;100367.50;;;21.24;100.00
18900;BME280;9582;52.018;6.306;2023-07-28T10:20:28;100364.19;;;21.40;100.00
18900;BME280;9582;52.018;6.306;2023-07-28T10:23:02;100292.69;;;21.72;100.00
18900;BME280;9582;52.018;6.306;2023-07-28T10:25:32;100238.47;;;21.91;100.00
18900;BME280;9582;52.018;6.306;2023-07-28T10:27:59;100176.63;;;22.23;100.00
18900;BME280;9582;52.018;6.306;2023-07-28T10:30:27;100122.75;;;22.37;100.00
18900;BME280;9582;52.018;6.306;2023-07-28T10:32:55;100100.69;;;22.19;100.00
18900;BME280;9582;52.018;6.306;2023-07-28T10:35:23;100061.25;;;22.14;100.00
18900;BME280;9582;52.018;6.306;2023-07-28T10:37:51;100035.97;;;22.18;100.00
18900;BME280;9582;52.018;6.306;2023-07-28T10:40:23;100019.69;;;22.29;100.00
18900;BME280;9582;52.018;6.306;2023-07-28T10:42:51;99986.06;;;22.28;100.00
18900;BME280;9582;52.018;6.306;2023-07-28T10:45:18;99972.94;;;22.35;100.00
18900;BME280;9582;52.018;6.306;2023-07-28T10:47:46;99955.28;;;22.34;100.00
18900;BME280;9582;52.018;6.306;2023-07-28T10:50:13;99912.66;;;22.42;100.00
18900;BME280;9582;52.018;6.306;2023-07-28T10:52:40;99888.34;;;22.69;100.00
18900;BME280;9582;52.018;6.306;2023-07-28T10:55:12;99862.53;;;22.70;100.00
18900;BME280;9582;52.018;6.306;2023-07-28T10:57:40;99854.00;;;22.90;100.00
18900;BME280;9582;52.018;6.306;2023-07-28T11:00:08;99831.81;;;22.98;100.00
18900;BME280;9582;52.018;6.306;2023-07-28T11:02:37;99818.13;;;23.01;100.00
18900;BME280;9582;52.018;6.306;2023-07-28T11:07:33;99771.38;;;23.21;100.00
18900;BME280;9582;52.018;6.306;2023-07-28T11:10:01;99767.19;;;23.27;100.00
18900;BME280;9582;52.018;6.306;2023-07-28T11:12:27;99766.34;;;23.26;100.00
18900;BME280;9582;52.018;6.306;2023-07-28T11:14:54;99772.31;;;23.06;100.00
18900;BME280;9582;52.018;6.306;2023-07-28T11:17:21;99742.94;;;23.44;100.00
18900;BME280;9582;52.018;6.306;2023-07-28T11:19:47;99731.09;;;23.47;100.00
18900;BME280;9582;52.018;6.306;2023-07-28T11:22:17;99720.34;;;23.55;100.00
18900;BME280;9582;52.018;6.306;2023-07-28T11:24:44;99717.13;;;23.37;100.00
18900;BME280;9582;52.018;6.306;2023-07-28T11:27:10;99714.78;;;23.42;100.00
18900;BME280;9582;52.018;6.306;2023-07-28T11:29:37;99710.94;;;23.44;100.00
18900;BME280;9582;52.018;6.306;2023-07-28T11:32:04;99715.47;;;23.36;100.00
18900;BME280;9582;52.018;6.306;2023-07-28T11:34:35;99716.06;;;23.46;100.00
18900;BME280;9582;52.018;6.306;2023-07-28T11:37:02;99712.22;;;23.48;100.00
18900;BME280;9582;52.018;6.306;2023-07-28T11:39:32;99704.41;;;23.47;100.00
18900;BME280;9582;52.018;6.306;2023-07-28T11:41:59;99708.78;;;23.40;100.00
18900;BME280;9582;52.018;6.306;2023-07-28T11:44:25;99711.78;;;23.37;100.00
18900;BME280;9582;52.018;6.306;2023-07-28T11:46:52;99703.78;;;23.37;100.00
18900;BME280;9582;52.018;6.306;2023-07-28T11:49:20;99703.78;;;23.37;100.00
18900;BME280;9582;52.018;6.306;2023-07-28T11:51:49;99704.78;;;23.36;100.00
18900;BME280;9582;52.018;6.306;2023-07-28T11:54:17;99711.47;;;23.32;100.00
18900;BME280;9582;52.018;6.306;2023-07-28T11:56:49;99714.66;;;23.58;100.00
18900;BME280;9582;52.018;6.306;2023-07-28T11:59:17;99699.94;;;23.99;100.00
18900;BME280;9582;52.018;6.306;2023-07-28T12:01:54;99699.75;;;24.24;100.00
18900;BME280;9582;52.018;6.306;2023-07-28T12:04:22;99703.06;;;24.26;100.00
18900;BME280;9582;52.018;6.306;2023-07-28T12:07:06;99702.78;;;24.21;100.00
18900;BME280;9582;52.018;6.306;2023-07-28T12:09:36;99701.72;;;24.07;100.00
18900;BME280;9582;52.018;6.306;2023-07-28T12:12:15;99701.03;;;24.13;100.00
18900;BME280;9582;52.018;6.306;2023-07-28T12:14:43;99708.63;;;24.01;100.00
18900;BME280;9582;52.018;6.306;2023-07-28T12:17:12;99722.44;;;23.68;100.00
18900;BME280;9582;52.018;6.306;2023-07-28T12:19:40;99726.75;;;23.46;100.00
18900;BME280;9582;52.018;6.306;2023-07-28T12:22:07;99730.91;;;23.48;100.00
18900;BME280;9582;52.018;6.306;2023-07-28T12:24:34;99732.06;;;23.46;100.00
18900;BME280;9582;52.018;6.306;2023-07-28T12:27:00;99738.78;;;23.42;100.00
18900;BME280;9582;52.018;6.306;2023-07-28T12:29:28;99737.47;;;23.38;100.00
18900;BME280;9582;52.018;6.306;2023-07-28T12:31:54;99735.78;;;23.45;100.00
18900;BME280;9582;52.018;6.306;2023-07-28T12:34:21;99736.06;;;23.50;100.00
18900;BME280;9582;52.018;6.306;2023-07-28T12:36:48;99727.28;;;23.64;100.00
18900;BME280;9582;52.018;6.306;2023-07-28T12:39:16;99733.09;;;23.68;100.00
18900;BME280;9582;52.018;6.306;2023-07-28T12:41:42;99740.28;;;23.67;100.00
18900;BME280;9582;52.018;6.306;2023-07-28T12:44:09;99731.00;;;23.78;100.00
18900;BME280;9582;52.018;6.306;2023-07-28T12:46:37;99726.84;;;23.98;100.00
18900;BME280;9582;52.018;6.306;2023-07-28T12:49:05;99727.53;;;24.15;100.00
18900;BME280;9582;52.018;6.306;2023-07-28T12:51:32;99721.28;;;24.22;100.00
18900;BME280;9582;52.018;6.306;2023-07-28T12:53:59;99720.03;;;24.33;100.00
18900;BME280;9582;52.018;6.306;2023-07-28T12:56:25;99715.59;;;24.40;100.00
18900;BME280;9582;52.018;6.306;2023-07-28T12:58:52;99713.50;;;24.50;100.00
18900;BME280;9582;52.018;6.306;2023-07-28T13:01:18;99707.75;;;24.67;100.00
18900;BME280;9582;52.018;6.306;2023-07-28T13:03:46;99715.56;;;24.98;100.00
18900;BME280;9582;52.018;6.306;2023-07-28T13:06:12;99724.69;;;25.04;100.00
18900;BME280;9582;52.018;6.306;2023-07-28T13:08:40;99724.25;;;25.00;100.00
18900;BME280;9582;52.018;6.306;2023-07-28T13:11:06;99723.59;;;24.98;100.00